Time;durP1;ratioP1;P1;durP2;ratioP2;P2;SDS_P1;SDS_P2;PMS_P1;PMS_P2;Temp;Humidity;BMP_temperature;BMP_pressure;BME280_temperature;BME280_humidity;BME280_pressure;Samples;Min_cycle;Max_cycle;Signal;HPM_P1;HPM_P2
2024/02/01 00:02:20;;;;;;;;;;;;;;;6.78;55.87;102224.53;5099514;28;20300;-78
2024/02/01 00:05:12;;;;;;;;;;;;;;;6.87;56.03;102225.72;5096688;28;19912;-78
2024/02/01 00:08:04;;;;;;;;;;;;;;;6.98;56.10;102223.13;5094533;28;19916;-78
2024/02/01 00:10:56;;;;;;;;;;;;;;;6.66;56.57;102218.44;5098684;28;19912;-77
2024/02/01 00:13:48;;;;;;;;;;;;;;;6.26;55.52;102207.94;5096213;28;20372;-78
2024/02/01 00:16:40;;;;;;;;;;;;;;;6.29;56.76;102209.31;5098981;28;20289;-78
2024/02/01 00:19:30;;;;;;;;;;;;;;;6.46;60.20;102204.66;5097271;28;19912;-78
2024/02/01 00:22:22;;;;;;;;;;;;;;;6.63;61.87;102202.72;5095442;28;19920;-78
2024/02/01 00:25:09;;;;;;;;;;;;;;;6.56;62.71;102193.16;5098752;28;19912;-78
2024/02/01 00:27:54;;;;;;;;;;;;;;;6.43;62.23;102192.50;5096092;28;20288;-78
2024/02/01 00:30:46;;;;;;;;;;;;;;;6.52;61.65;102184.75;5095040;28;19912;-77
2024/02/01 00:33:38;;;;;;;;;;;;;;;6.67;61.10;102184.94;5098764;28;19920;-77
2024/02/01 00:36:30;;;;;;;;;;;;;;;6.66;61.98;102171.66;5095910;28;19915;-77
2024/02/01 00:39:22;;;;;;;;;;;;;;;6.55;62.84;102173.47;5093741;28;19916;-78
2024/02/01 00:42:13;;;;;;;;;;;;;;;6.62;61.99;102174.06;5097626;28;19916;-78
2024/02/01 00:45:05;;;;;;;;;;;;;;;6.68;61.90;102178.47;5095118;28;19916;-79
2024/02/01 00:47:57;;;;;;;;;;;;;;;6.86;61.27;102175.41;5095322;28;19912;-78
2024/02/01 00:50:49;;;;;;;;;;;;;;;6.91;61.03;102171.94;5096681;28;19912;-78
2024/02/01 00:53:39;;;;;;;;;;;;;;;6.92;61.38;102156.53;5095709;28;19912;-78
2024/02/01 00:56:35;;;;;;;;;;;;;;;6.98;61.64;102158.22;5097280;28;19935;-78
2024/02/01 00:59:25;;;;;;;;;;;;;;;6.89;62.04;102149.75;5100770;28;19912;-77
2024/02/01 01:02:14;;;;;;;;;;;;;;;6.81;62.15;102145.63;5092938;28;19920;-78
2024/02/01 01:05:01;;;;;;;;;;;;;;;6.83;62.42;102140.78;5096887;28;19916;-79
2024/02/01 01:07:53;;;;;;;;;;;;;;;6.77;63.55;102138.28;5095487;28;19912;-78
2024/02/01 01:10:45;;;;;;;;;;;;;;;6.82;63.56;102136.44;5099061;28;19911;-78
2024/02/01 01:13:37;;;;;;;;;;;;;;;6.76;62.97;102132.03;5096391;28;19912;-79
2024/02/01 01:16:27;;;;;;;;;;;;;;;6.68;63.25;102134.41;5093219;28;19912;-80
2024/02/01 01:19:19;;;;;;;;;;;;;;;6.60;63.39;102119.47;5097790;28;19912;-78
2024/02/01 01:22:11;;;;;;;;;;;;;;;6.59;64.19;102130.53;5095782;28;19924;-77
2024/02/01 01:25:01;;;;;;;;;;;;;;;6.58;64.81;102128.88;5093095;28;19916;-79
2024/02/01 01:27:51;;;;;;;;;;;;;;;6.65;65.48;102118.69;5094851;28;19912;-76
2024/02/01 01:30:42;;;;;;;;;;;;;;;6.66;66.52;102112.19;5094940;28;19912;-78
2024/02/01 01:33:34;;;;;;;;;;;;;;;6.58;67.16;102113.50;5093018;28;19931;-77
2024/02/01 01:36:24;;;;;;;;;;;;;;;6.62;67.77;102111.09;5095928;28;19920;-77
2024/02/01 01:39:15;;;;;;;;;;;;;;;6.69;67.91;102115.22;5094214;28;19912;-77
2024/02/01 01:42:07;;;;;;;;;;;;;;;6.72;67.50;102119.28;5097872;28;19920;-78
2024/02/01 01:44:59;;;;;;;;;;;;;;;6.81;66.57;102110.47;5095609;28;20376;-76
2024/02/01 01:47:51;;;;;;;;;;;;;;;6.87;66.11;102112.16;5093265;28;19912;-77
2024/02/01 01:50:40;;;;;;;;;;;;;;;6.71;65.50;102107.66;5096890;28;19912;-78
2024/02/01 01:53:33;;;;;;;;;;;;;;;6.67;66.07;102101.16;5094877;28;19916;-78
2024/02/01 01:56:22;;;;;;;;;;;;;;;6.66;64.61;102098.69;5092224;28;19915;-78
2024/02/01 01:59:15;;;;;;;;;;;;;;;6.73;64.70;102094.72;5096494;28;20296;-77
2024/02/01 02:02:07;;;;;;;;;;;;;;;6.71;65.24;102090.63;5094277;28;19931;-77
2024/02/01 02:04:57;;;;;;;;;;;;;;;6.76;64.89;102091.50;5097907;28;19912;-78
2024/02/01 02:07:49;;;;;;;;;;;;;;;6.79;65.72;102088.28;5095631;28;19912;-77
2024/02/01 02:10:41;;;;;;;;;;;;;;;6.85;65.44;102087.28;5097206;28;19916;-79
2024/02/01 02:13:31;;;;;;;;;;;;;;;6.88;66.15;102084.06;5101639;28;20305;-76
2024/02/01 02:16:21;;;;;;;;;;;;;;;6.94;66.05;102081.38;5099171;28;20388;-76
2024/02/01 02:19:11;;;;;;;;;;;;;;;6.88;65.96;102075.13;5097026;28;19912;-77
2024/02/01 02:22:03;;;;;;;;;;;;;;;6.90;66.22;102072.16;5100499;28;19920;-77
2024/02/01 02:24:56;;;;;;;;;;;;;;;6.82;66.61;102060.75;5098199;28;20380;-79
2024/02/01 02:27:48;;;;;;;;;;;;;;;6.86;66.47;102058.31;5096468;28;19916;-77
2024/02/01 02:30:43;;;;;;;;;;;;;;;6.90;65.70;102054.06;5099721;28;20292;-78
2024/02/01 02:33:33;;;;;;;;;;;;;;;6.93;65.61;102041.91;5097188;28;20292;-78
2024/02/01 02:36:25;;;;;;;;;;;;;;;6.81;66.16;102042.88;5100639;28;19912;-78
2024/02/01 02:39:17;;;;;;;;;;;;;;;6.80;67.14;102045.88;5098814;28;19915;-78
2024/02/01 02:42:09;;;;;;;;;;;;;;;6.81;67.44;102034.78;5096165;28;19916;-77
2024/02/01 02:44:59;;;;;;;;;;;;;;;6.76;67.09;102039.31;5099330;28;19916;-77
2024/02/01 02:47:51;;;;;;;;;;;;;;;6.73;67.37;102034.44;5097978;28;19994;-77
2024/02/01 02:50:43;;;;;;;;;;;;;;;6.80;66.40;102035.88;5101502;28;19916;-78
2024/02/01 02:53:35;;;;;;;;;;;;;;;6.88;66.04;102029.97;5098755;28;19912;-78
2024/02/01 02:56:27;;;;;;;;;;;;;;;6.88;66.38;102034.56;5097718;28;19912;-79
2024/02/01 02:59:16;;;;;;;;;;;;;;;6.80;66.85;102026.94;5100376;28;19916;-79
2024/02/01 03:02:08;;;;;;;;;;;;;;;6.93;65.59;102026.50;5097290;28;19920;-80
2024/02/01 03:05:00;;;;;;;;;;;;;;;6.99;64.56;102022.75;5094671;28;20284;-79
2024/02/01 03:07:52;;;;;;;;;;;;;;;7.01;64.57;102012.47;5093176;28;19916;-79
2024/02/01 03:10:44;;;;;;;;;;;;;;;6.93;64.01;102004.03;5092611;28;19916;-80
2024/02/01 03:13:34;;;;;;;;;;;;;;;6.83;64.25;101997.50;5101795;28;20288;-80
2024/02/01 03:16:26;;;;;;;;;;;;;;;6.76;64.33;101994.19;5098705;28;19912;-79
2024/02/01 03:19:13;;;;;;;;;;;;;;;6.85;64.21;101989.13;5096761;28;19911;-79
2024/02/01 03:22:08;;;;;;;;;;;;;;;6.94;63.85;101992.16;5100844;28;19919;-79
2024/02/01 03:25:02;;;;;;;;;;;;;;;6.90;62.31;101993.75;5097530;28;19916;-77
2024/02/01 03:28:00;;;;;;;;;;;;;;;6.77;62.67;101993.13;5095068;28;19916;-78
2024/02/01 03:30:52;;;;;;;;;;;;;;;6.69;62.37;102004.41;5099320;28;19915;-78
2024/02/01 03:33:47;;;;;;;;;;;;;;;6.70;62.04;101995.22;5096835;28;20312;-78
2024/02/01 03:36:39;;;;;;;;;;;;;;;6.53;62.32;102002.63;5099735;28;19920;-79
2024/02/01 03:39:31;;;;;;;;;;;;;;;6.51;63.21;102009.34;5098494;28;19912;-78
2024/02/01 03:42:23;;;;;;;;;;;;;;;6.26;63.73;102009.94;5096778;28;19915;-79
2024/02/01 03:45:13;;;;;;;;;;;;;;;6.12;63.77;102017.63;5099624;28;19916;-80
2024/02/01 03:48:05;;;;;;;;;;;;;;;6.07;62.61;102016.75;5099419;28;19923;-80
2024/02/01 03:50:52;;;;;;;;;;;;;;;6.01;63.01;102011.28;5101860;28;19912;-78
2024/02/01 03:53:44;;;;;;;;;;;;;;;6.04;63.53;102030.75;5098796;28;20307;-76
2024/02/01 03:56:39;;;;;;;;;;;;;;;6.05;63.48;102021.56;5096383;28;19915;-77
2024/02/01 03:59:30;;;;;;;;;;;;;;;5.95;64.57;102019.56;5100410;28;20365;-77
2024/02/01 04:02:30;;;;;;;;;;;;;;;5.93;63.14;102019.03;5097755;28;19916;-79
2024/02/01 04:05:22;;;;;;;;;;;;;;;5.81;62.75;102005.63;5095993;28;20292;-78
2024/02/01 04:08:17;;;;;;;;;;;;;;;5.86;61.32;101994.88;5096108;28;19912;-78
2024/02/01 04:11:06;;;;;;;;;;;;;;;5.84;61.18;101988.91;5094685;28;20376;-78
2024/02/01 04:13:53;;;;;;;;;;;;;;;5.80;61.63;101974.28;5100228;28;19916;-78
2024/02/01 04:16:45;;;;;;;;;;;;;;;5.85;62.10;101976.22;5098177;28;20296;-77
2024/02/01 04:19:35;;;;;;;;;;;;;;;5.84;62.87;101978.13;5096001;28;19912;-76
2024/02/01 04:22:25;;;;;;;;;;;;;;;5.69;61.32;101969.84;5099398;28;19916;-77
2024/02/01 04:25:14;;;;;;;;;;;;;;;5.66;60.77;101973.06;5097068;28;19912;-77
2024/02/01 04:28:01;;;;;;;;;;;;;;;5.51;60.19;101978.25;5095193;28;19916;-79
2024/02/01 04:30:53;;;;;;;;;;;;;;;5.51;60.22;101976.38;5099660;28;19912;-78
2024/02/01 04:33:43;;;;;;;;;;;;;;;5.29;59.80;101974.72;5097770;28;19911;-78
2024/02/01 04:36:35;;;;;;;;;;;;;;;5.13;59.95;101971.81;5094078;28;20297;-78
2024/02/01 04:39:26;;;;;;;;;;;;;;;5.05;60.92;101977.63;5095542;28;19916;-76
2024/02/01 04:42:18;;;;;;;;;;;;;;;5.13;59.54;101987.97;5097663;28;19916;-76
2024/02/01 04:45:10;;;;;;;;;;;;;;;5.10;59.82;101988.50;5095260;28;19915;-77
2024/02/01 04:48:00;;;;;;;;;;;;;;;5.18;60.19;101984.56;5092247;28;19912;-77
2024/02/01 04:50:52;;;;;;;;;;;;;;;5.11;60.61;101989.31;5095414;28;19916;-79
2024/02/01 04:53:44;;;;;;;;;;;;;;;5.07;61.05;101977.41;5099776;28;19912;-77
2024/02/01 04:56:36;;;;;;;;;;;;;;;5.06;60.49;101973.06;5097442;28;19916;-78
2024/02/01 04:59:28;;;;;;;;;;;;;;;5.02;60.54;101970.06;5094454;28;20292;-78
2024/02/01 05:02:20;;;;;;;;;;;;;;;4.97;60.91;101982.63;5098152;28;19916;-76
2024/02/01 05:05:12;;;;;;;;;;;;;;;4.96;62.06;101983.69;5085531;28;19920;-78
2024/02/01 05:08:04;;;;;;;;;;;;;;;5.06;60.20;101983.84;5093069;28;19916;-77
2024/02/01 05:10:56;;;;;;;;;;;;;;;4.97;60.64;101977.25;5097132;28;19912;-77
2024/02/01 05:13:46;;;;;;;;;;;;;;;5.01;60.43;101976.50;5094987;28;19912;-77
2024/02/01 05:16:36;;;;;;;;;;;;;;;4.92;60.66;101967.22;5098549;28;19916;-77
2024/02/01 05:19:25;;;;;;;;;;;;;;;4.95;60.23;101961.31;5096825;28;20292;-77
2024/02/01 05:22:17;;;;;;;;;;;;;;;4.98;59.52;101957.28;5094300;28;20394;-77
2024/02/01 05:25:14;;;;;;;;;;;;;;;4.74;60.37;101965.56;5097636;28;19912;-76
2024/02/01 05:28:09;;;;;;;;;;;;;;;4.65;61.44;101979.69;5094838;28;19912;-78
2024/02/01 05:31:01;;;;;;;;;;;;;;;4.62;61.45;101996.34;5097130;28;19911;-77
2024/02/01 05:33:53;;;;;;;;;;;;;;;4.70;61.01;101983.28;5091949;28;20300;-75
2024/02/01 05:36:45;;;;;;;;;;;;;;;4.76;61.45;101959.94;5088342;28;19916;-77
2024/02/01 05:39:37;;;;;;;;;;;;;;;4.88;62.08;101978.69;5097564;28;19912;-77
2024/02/01 05:42:29;;;;;;;;;;;;;;;4.87;60.60;101980.59;5091967;28;20390;-77
2024/02/01 05:45:27;;;;;;;;;;;;;;;4.87;61.78;101977.91;5100035;28;20308;-78
2024/02/01 05:48:25;;;;;;;;;;;;;;;4.84;61.56;101969.47;5085166;28;20304;-77
2024/02/01 05:51:17;;;;;;;;;;;;;;;4.61;61.93;101959.69;5092833;28;19912;-77
2024/02/01 05:54:06;;;;;;;;;;;;;;;4.64;61.96;101951.13;5096858;28;19916;-78
2024/02/01 05:56:58;;;;;;;;;;;;;;;4.77;62.73;101958.88;5095050;28;19916;-79
2024/02/01 05:59:50;;;;;;;;;;;;;;;4.73;61.22;101960.41;5093009;28;19912;-79
2024/02/01 06:02:42;;;;;;;;;;;;;;;4.74;60.85;101967.44;5095980;28;19920;-79
2024/02/01 06:05:35;;;;;;;;;;;;;;;4.64;61.11;101978.06;5093875;28;19916;-79
2024/02/01 06:08:27;;;;;;;;;;;;;;;4.67;61.96;101977.59;5092419;28;19912;-78
2024/02/01 06:11:19;;;;;;;;;;;;;;;4.61;61.37;101975.88;5098070;28;19912;-77
2024/02/01 06:14:11;;;;;;;;;;;;;;;4.57;61.97;101966.66;5093794;28;19912;-78
2024/02/01 06:17:03;;;;;;;;;;;;;;;4.62;61.34;101980.19;5090094;28;19912;-77
2024/02/01 06:19:55;;;;;;;;;;;;;;;4.63;61.41;101987.19;5094961;28;19916;-77
2024/02/01 06:22:47;;;;;;;;;;;;;;;4.61;61.36;101979.38;5092442;28;19916;-77
2024/02/01 06:25:39;;;;;;;;;;;;;;;4.56;61.43;101970.41;5096333;28;19920;-78
2024/02/01 06:28:31;;;;;;;;;;;;;;;4.58;61.94;101968.25;5092287;28;19911;-78
2024/02/01 06:31:23;;;;;;;;;;;;;;;4.49;62.27;101965.16;5091601;28;19915;-78
2024/02/01 06:34:15;;;;;;;;;;;;;;;4.89;64.21;101959.59;5095099;28;20392;-78
2024/02/01 06:37:07;;;;;;;;;;;;;;;4.85;61.15;101953.06;5092961;28;19914;-77
2024/02/01 06:43:11;;;;;;;;;;;;;;;4.95;61.42;101973.97;5093974;28;19920;-77
2024/02/01 06:46:08;;;;;;;;;;;;;;;4.86;61.00;101970.06;5091171;28;19912;-78
2024/02/01 06:49:17;;;;;;;;;;;;;;;4.76;61.77;101976.09;5094777;28;19915;-77
2024/02/01 06:52:24;;;;;;;;;;;;;;;5.58;66.61;101987.00;5087711;28;19912;-77
2024/02/01 06:55:36;;;;;;;;;;;;;;;5.86;64.51;101976.00;5087266;28;19912;-77
2024/02/01 07:02:02;;;;;;;;;;;;;;;5.41;60.43;101970.84;5097933;28;20368;-77
2024/02/01 07:04:53;;;;;;;;;;;;;;;5.68;65.05;101973.63;5100658;28;19919;-76
2024/02/01 07:07:45;;;;;;;;;;;;;;;8.74;64.17;101981.44;5096596;28;19916;-77
2024/02/01 07:10:46;;;;;;;;;;;;;;;9.63;52.39;101980.72;5095926;28;19912;-77
2024/02/01 07:13:47;;;;;;;;;;;;;;;7.84;55.39;101972.06;5098644;28;19912;-77
2024/02/01 07:16:57;;;;;;;;;;;;;;;7.31;55.93;101971.31;5095686;28;19915;-76
2024/02/01 07:19:55;;;;;;;;;;;;;;;6.65;56.77;101973.56;5099436;28;19912;-78
2024/02/01 07:23:03;;;;;;;;;;;;;;;6.33;58.22;101975.44;5096601;28;19916;-79
2024/02/01 07:26:04;;;;;;;;;;;;;;;6.06;58.94;101982.72;5099410;28;20372;-78
2024/02/01 08:00:20;;;;;;;;;;;;;;;5.06;61.99;101954.19;5094446;28;19916;-77
2024/02/01 08:09:29;;;;;;;;;;;;;;;5.00;63.25;101980.25;5099512;28;20301;-79
2024/02/01 08:12:19;;;;;;;;;;;;;;;4.97;63.50;101978.06;5097349;28;19919;-78
2024/02/01 08:15:11;;;;;;;;;;;;;;;4.95;63.24;101969.41;5094747;28;19916;-78
2024/02/01 08:18:13;;;;;;;;;;;;;;;4.93;64.36;101966.13;5095104;28;19915;-78
2024/02/01 08:21:03;;;;;;;;;;;;;;;4.85;64.55;101960.34;5095965;28;19924;-78
2024/02/01 08:23:54;;;;;;;;;;;;;;;4.90;64.89;101949.63;5094122;28;20408;-78
2024/02/01 08:26:47;;;;;;;;;;;;;;;5.13;63.42;101938.63;5096713;28;19916;-77
2024/02/01 08:29:39;;;;;;;;;;;;;;;5.15;63.85;101934.63;5095354;28;19916;-78
2024/02/01 08:32:33;;;;;;;;;;;;;;;5.15;63.75;101937.34;5093508;28;19928;-77
2024/02/01 08:35:25;;;;;;;;;;;;;;;5.21;63.86;101937.41;5096110;28;19912;-78
2024/02/01 08:38:15;;;;;;;;;;;;;;;5.31;64.13;101942.94;5093931;28;19912;-78
2024/02/01 08:41:07;;;;;;;;;;;;;;;5.34;63.52;101940.53;5098363;28;20385;-78
2024/02/01 08:43:59;;;;;;;;;;;;;;;5.41;64.52;101951.16;5095525;28;20316;-78
2024/02/01 08:46:51;;;;;;;;;;;;;;;5.48;64.23;101943.72;5093433;28;19912;-78
2024/02/01 08:49:42;;;;;;;;;;;;;;;5.56;63.85;101951.34;5097063;28;19920;-78
2024/02/01 08:52:34;;;;;;;;;;;;;;;5.65;64.50;101944.44;5095399;28;20297;-78
2024/02/01 08:55:26;;;;;;;;;;;;;;;5.75;64.51;101955.34;5098056;28;19912;-78
2024/02/01 08:58:16;;;;;;;;;;;;;;;5.89;64.43;101958.53;5094765;28;20391;-78
2024/02/01 09:01:20;;;;;;;;;;;;;;;5.87;64.73;101950.66;5094008;28;19916;-78
2024/02/01 09:04:14;;;;;;;;;;;;;;;6.03;64.07;101945.44;5097091;28;19916;-77
2024/02/01 09:07:05;;;;;;;;;;;;;;;6.05;63.49;101937.88;5094574;28;19912;-78
2024/02/01 09:09:58;;;;;;;;;;;;;;;6.07;64.23;101935.75;5098505;28;19915;-78
2024/02/01 09:12:50;;;;;;;;;;;;;;;6.06;64.59;101931.41;5096186;28;19912;-77
2024/02/01 09:15:42;;;;;;;;;;;;;;;6.09;64.93;101936.31;5093618;28;19912;-78
2024/02/01 09:18:34;;;;;;;;;;;;;;;6.13;65.27;101922.03;5092807;28;19917;-78
2024/02/01 09:21:26;;;;;;;;;;;;;;;6.14;65.02;101931.78;5095335;28;19911;-78
2024/02/01 09:24:16;;;;;;;;;;;;;;;6.25;65.15;101925.38;5093344;28;19916;-78
2024/02/01 09:27:08;;;;;;;;;;;;;;;6.24;64.21;101939.16;5096255;28;19915;-77
2024/02/01 09:30:00;;;;;;;;;;;;;;;6.26;65.15;101945.09;5094585;28;20380;-78
2024/02/01 09:32:56;;;;;;;;;;;;;;;6.27;65.16;101946.75;5098414;28;19912;-78
2024/02/01 09:35:47;;;;;;;;;;;;;;;6.19;65.39;101955.31;5095227;28;19912;-79
2024/02/01 09:38:39;;;;;;;;;;;;;;;6.24;64.93;101955.38;5092295;28;19920;-77
2024/02/01 09:41:29;;;;;;;;;;;;;;;6.27;65.13;101954.84;5096561;28;19912;-78
2024/02/01 09:44:18;;;;;;;;;;;;;;;6.25;65.44;101943.47;5094417;28;19920;-78
2024/02/01 09:47:10;;;;;;;;;;;;;;;6.24;65.81;101939.97;5091849;28;19916;-78
2024/02/01 09:50:04;;;;;;;;;;;;;;;6.29;65.54;101940.03;5096261;28;20289;-78
2024/02/01 09:52:56;;;;;;;;;;;;;;;6.37;66.03;101938.72;5094085;28;19912;-78
2024/02/01 09:55:48;;;;;;;;;;;;;;;6.45;65.52;101946.34;5094567;28;20373;-78
2024/02/01 09:58:38;;;;;;;;;;;;;;;6.44;65.36;101944.75;5085497;28;19912;-78
2024/02/01 10:01:30;;;;;;;;;;;;;;;6.48;65.95;101936.94;5092772;28;19915;-78
2024/02/01 10:04:20;;;;;;;;;;;;;;;6.51;65.18;101939.91;5088446;28;19916;-78
2024/02/01 10:07:12;;;;;;;;;;;;;;;6.54;65.45;101928.63;5086341;28;19912;-78
2024/02/01 10:10:04;;;;;;;;;;;;;;;6.61;65.43;101929.19;5091708;28;19912;-78
2024/02/01 10:12:58;;;;;;;;;;;;;;;6.68;64.92;101934.38;5095545;28;19915;-79
2024/02/01 10:15:50;;;;;;;;;;;;;;;6.65;65.08;101934.91;5092763;28;20324;-80
2024/02/01 10:18:45;;;;;;;;;;;;;;;6.73;64.99;101927.13;5092605;28;20296;-78
2024/02/01 10:21:44;;;;;;;;;;;;;;;6.60;64.67;101914.06;5095731;28;19912;-78
2024/02/01 10:24:44;;;;;;;;;;;;;;;6.62;64.57;101897.59;5091183;28;19920;-78
2024/02/01 10:27:34;;;;;;;;;;;;;;;6.69;64.36;101899.00;5096650;28;19911;-77
2024/02/01 10:30:31;;;;;;;;;;;;;;;6.71;64.47;101912.22;5063535;28;19916;-77
2024/02/01 10:33:25;;;;;;;;;;;;;;;6.78;64.18;101918.25;5082956;28;20300;-78
2024/02/01 10:36:21;;;;;;;;;;;;;;;6.79;64.49;101912.59;5080416;28;19912;-77
2024/02/01 10:39:16;;;;;;;;;;;;;;;6.78;64.56;101913.66;5078106;28;20322;-78
2024/02/01 10:42:08;;;;;;;;;;;;;;;6.85;64.32;101908.84;5092332;28;19912;-77
2024/02/01 10:45:02;;;;;;;;;;;;;;;6.91;64.26;101895.34;5099253;28;19916;-76
2024/02/01 10:47:56;;;;;;;;;;;;;;;6.92;64.27;101892.38;5099909;28;20296;-76
2024/02/01 10:50:49;;;;;;;;;;;;;;;6.88;64.64;101892.09;5101042;28;19912;-75
2024/02/01 10:53:41;;;;;;;;;;;;;;;6.95;64.39;101893.75;5097067;28;19916;-78
2024/02/01 10:56:33;;;;;;;;;;;;;;;7.01;63.45;101892.72;5100076;28;19915;-76
2024/02/01 10:59:23;;;;;;;;;;;;;;;6.82;64.46;101900.41;5093349;28;20296;-77
2024/02/01 11:02:18;;;;;;;;;;;;;;;6.91;64.19;101896.13;5097158;28;19912;-80
2024/02/01 11:05:11;;;;;;;;;;;;;;;6.99;64.29;101902.97;5097641;28;20376;-80
2024/02/01 11:08:02;;;;;;;;;;;;;;;7.01;63.29;101917.06;5097192;28;19916;-78
2024/02/01 11:11:00;;;;;;;;;;;;;;;7.04;63.41;101913.81;5096096;28;19912;-76
2024/02/01 11:13:52;;;;;;;;;;;;;;;7.05;63.57;101912.75;5095378;28;19915;-77
2024/02/01 11:16:43;;;;;;;;;;;;;;;7.09;63.51;101906.53;5095291;28;19912;-76
2024/02/01 11:19:35;;;;;;;;;;;;;;;7.16;63.29;101898.97;5098583;28;19912;-78
2024/02/01 11:22:27;;;;;;;;;;;;;;;7.13;63.73;101893.28;5094516;28;19916;-77
2024/02/01 11:25:14;;;;;;;;;;;;;;;7.17;63.57;101878.16;5100382;28;19912;-79
2024/02/01 11:28:11;;;;;;;;;;;;;;;7.15;63.76;101872.22;5096959;28;19912;-76
2024/02/01 11:31:05;;;;;;;;;;;;;;;7.12;64.28;101875.44;5096167;28;19920;-75
2024/02/01 11:33:57;;;;;;;;;;;;;;;7.18;63.82;101850.84;5100041;28;20289;-76
2024/02/01 11:36:57;;;;;;;;;;;;;;;7.18;64.00;101853.56;5091539;28;19975;-76
2024/02/01 11:39:49;;;;;;;;;;;;;;;7.26;63.96;101828.69;5088588;28;19916;-76
2024/02/01 11:42:41;;;;;;;;;;;;;;;7.24;64.93;101849.00;5098412;28;20380;-76
2024/02/01 11:45:33;;;;;;;;;;;;;;;7.21;66.03;101882.00;5092069;28;19916;-77
2024/02/01 11:48:22;;;;;;;;;;;;;;;7.32;65.52;101878.22;5093991;28;19912;-76
2024/02/01 11:51:14;;;;;;;;;;;;;;;7.29;66.08;101903.13;5095956;28;19915;-77
2024/02/01 11:54:06;;;;;;;;;;;;;;;7.15;66.07;101897.38;5092904;28;19912;-76
2024/02/01 11:56:58;;;;;;;;;;;;;;;7.21;65.64;101865.75;5098605;28;19916;-76
2024/02/01 11:59:49;;;;;;;;;;;;;;;7.41;65.23;101817.13;5096776;28;19916;-76
2024/02/01 12:02:41;;;;;;;;;;;;;;;7.44;64.88;101850.94;5094757;28;19912;-76
2024/02/01 12:05:37;;;;;;;;;;;;;;;7.28;65.22;101890.66;5097142;28;20293;-76
2024/02/01 12:08:30;;;;;;;;;;;;;;;7.33;65.30;101858.22;5094775;28;19915;-76
2024/02/01 12:11:23;;;;;;;;;;;;;;;7.38;64.74;101885.28;5099294;28;19912;-76
2024/02/01 12:14:17;;;;;;;;;;;;;;;7.38;65.11;101895.28;5096294;28;20376;-76
2024/02/01 12:17:10;;;;;;;;;;;;;;;7.44;64.55;101873.41;5090687;28;19916;-76
2024/02/01 12:20:03;;;;;;;;;;;;;;;7.59;63.62;101884.28;5097927;28;19911;-76
2024/02/01 12:22:58;;;;;;;;;;;;;;;7.50;64.17;101888.59;5090722;28;19919;-76
2024/02/01 12:25:48;;;;;;;;;;;;;;;7.46;64.01;101859.63;5096710;28;19916;-76
2024/02/01 12:28:40;;;;;;;;;;;;;;;7.46;64.89;101832.56;5091851;28;20304;-76
2024/02/01 12:31:29;;;;;;;;;;;;;;;7.46;64.15;101838.78;5092148;28;19916;-78
2024/02/01 12:34:22;;;;;;;;;;;;;;;7.51;64.45;101833.38;5096453;28;19912;-78
2024/02/01 12:37:14;;;;;;;;;;;;;;;7.54;64.06;101840.97;5095392;28;20392;-78
2024/02/01 12:40:06;;;;;;;;;;;;;;;7.58;63.86;101846.66;5093566;28;19912;-76
2024/02/01 12:43:01;;;;;;;;;;;;;;;7.66;63.07;101849.66;5093761;28;19916;-77
2024/02/01 12:45:53;;;;;;;;;;;;;;;7.60;63.20;101853.44;5092100;28;19916;-74
2024/02/01 12:48:45;;;;;;;;;;;;;;;7.63;63.16;101855.59;5094947;28;19916;-75
2024/02/01 12:51:35;;;;;;;;;;;;;;;7.69;63.13;101859.13;5089922;28;19912;-77
2024/02/01 12:54:27;;;;;;;;;;;;;;;7.71;62.60;101856.97;5087303;28;19920;-75
2024/02/01 12:57:16;;;;;;;;;;;;;;;7.74;62.87;101846.41;5098596;28;19912;-74
2024/02/01 13:00:08;;;;;;;;;;;;;;;7.84;63.13;101839.38;5097407;28;19912;-75
2024/02/01 13:03:02;;;;;;;;;;;;;;;7.74;63.55;101840.19;5093106;28;20300;-77
2024/02/01 13:05:52;;;;;;;;;;;;;;;7.83;64.07;101829.63;5097776;28;19916;-77
2024/02/01 13:08:44;;;;;;;;;;;;;;;7.87;64.59;101806.38;5096945;28;20298;-76
2024/02/01 13:11:36;;;;;;;;;;;;;;;7.98;64.51;101807.97;5100046;28;19916;-76
2024/02/01 13:14:29;;;;;;;;;;;;;;;7.92;64.88;101809.06;5098182;28;19912;-75
2024/02/01 13:17:18;;;;;;;;;;;;;;;7.85;65.14;101805.81;5094850;28;19912;-76
2024/02/01 13:20:19;;;;;;;;;;;;;;;7.79;64.88;101810.41;5099826;28;19911;-77
2024/02/01 13:23:09;;;;;;;;;;;;;;;7.85;65.26;101812.03;5096362;28;19916;-77
2024/02/01 13:25:58;;;;;;;;;;;;;;;7.81;65.40;101820.97;5093642;28;20368;-76
2024/02/01 13:28:50;;;;;;;;;;;;;;;7.83;65.05;101821.50;5097576;28;19912;-77
2024/02/01 13:31:42;;;;;;;;;;;;;;;7.87;65.21;101831.56;5095701;28;19916;-75
2024/02/01 13:34:37;;;;;;;;;;;;;;;7.85;65.23;101822.06;5099570;28;19911;-75
2024/02/01 13:37:27;;;;;;;;;;;;;;;7.85;64.45;101824.78;5096547;28;20297;-75
2024/02/01 13:40:22;;;;;;;;;;;;;;;7.88;64.38;101833.16;5094320;28;19912;-75
2024/02/01 13:43:17;;;;;;;;;;;;;;;7.96;64.23;101827.22;5097407;28;19920;-76
2024/02/01 13:46:09;;;;;;;;;;;;;;;8.06;64.53;101839.94;5095803;28;19912;-75
2024/02/01 13:49:01;;;;;;;;;;;;;;;8.22;64.35;101857.84;5099582;28;20234;-74
2024/02/01 13:51:53;;;;;;;;;;;;;;;8.27;63.89;101857.84;5096992;28;19937;-75
2024/02/01 13:54:43;;;;;;;;;;;;;;;8.29;63.50;101850.22;5095147;28;19912;-75
2024/02/01 13:57:35;;;;;;;;;;;;;;;8.45;62.65;101841.03;5095268;28;19912;-77
2024/02/01 14:00:27;;;;;;;;;;;;;;;8.62;61.51;101846.16;5091715;28;20253;-76
2024/02/01 14:03:17;;;;;;;;;;;;;;;8.83;60.46;101841.50;5088525;28;19916;-76
2024/02/01 14:06:08;;;;;;;;;;;;;;;8.99;60.75;101833.03;5087515;28;19912;-74
2024/02/01 14:09:09;;;;;;;;;;;;;;;9.23;59.33;101835.94;5094095;28;19931;-75
2024/02/01 14:11:59;;;;;;;;;;;;;;;9.28;57.76;101827.75;5092493;28;19916;-75
2024/02/01 14:14:46;;;;;;;;;;;;;;;9.28;56.78;101824.25;5091003;28;19912;-77
2024/02/01 14:17:38;;;;;;;;;;;;;;;9.29;54.54;101826.69;5093333;28;19916;-75
2024/02/01 14:20:30;;;;;;;;;;;;;;;9.32;54.50;101822.59;5098470;28;19912;-77
2024/02/01 14:23:22;;;;;;;;;;;;;;;9.25;54.78;101814.75;5096338;28;19919;-76
2024/02/01 14:26:14;;;;;;;;;;;;;;;9.31;53.27;101818.25;5089427;28;19916;-77
2024/02/01 14:29:07;;;;;;;;;;;;;;;9.38;53.87;101814.13;5097084;28;20103;-75
2024/02/01 14:32:02;;;;;;;;;;;;;;;9.38;54.07;101819.56;5093102;28;19912;-76
2024/02/01 14:34:51;;;;;;;;;;;;;;;9.40;52.39;101817.38;5098276;28;19916;-75
2024/02/01 14:37:38;;;;;;;;;;;;;;;9.42;52.82;101819.81;5094764;28;19912;-77
2024/02/01 14:40:30;;;;;;;;;;;;;;;9.48;53.13;101826.03;5092878;28;19912;-77
2024/02/01 14:43:22;;;;;;;;;;;;;;;9.44;52.87;101817.63;5098014;28;19920;-76
2024/02/01 14:46:12;;;;;;;;;;;;;;;9.58;53.25;101818.63;5095662;28;19912;-75
2024/02/01 14:49:04;;;;;;;;;;;;;;;9.58;53.53;101824.06;5092489;28;19919;-76
2024/02/01 14:51:53;;;;;;;;;;;;;;;9.61;52.71;101830.81;5096940;28;19912;-76
2024/02/01 14:54:45;;;;;;;;;;;;;;;9.64;52.65;101816.69;5093623;28;19912;-77
2024/02/01 14:57:38;;;;;;;;;;;;;;;9.62;53.46;101821.59;5093185;28;19916;-76
2024/02/01 15:00:30;;;;;;;;;;;;;;;9.61;53.46;101828.09;5095402;28;19912;-75
2024/02/01 15:03:20;;;;;;;;;;;;;;;9.55;53.57;101834.69;5092514;28;19920;-77
2024/02/01 15:06:10;;;;;;;;;;;;;;;9.51;53.52;101839.03;5096020;28;19912;-75
2024/02/01 15:09:02;;;;;;;;;;;;;;;9.43;53.65;101835.00;5086748;28;19912;-75
2024/02/01 15:11:54;;;;;;;;;;;;;;;9.43;54.48;101843.97;5094006;28;19932;-74
2024/02/01 15:14:46;;;;;;;;;;;;;;;9.43;55.31;101846.69;5098054;28;19912;-76
2024/02/01 15:17:38;;;;;;;;;;;;;;;9.49;56.05;101849.38;5098554;28;19912;-75
2024/02/01 15:20:33;;;;;;;;;;;;;;;9.47;56.48;101837.97;5095405;28;19912;-77
2024/02/01 15:23:25;;;;;;;;;;;;;;;9.49;56.25;101846.66;5099250;28;19920;-76
2024/02/01 15:26:14;;;;;;;;;;;;;;;9.52;56.62;101841.47;5096462;28;19916;-78
2024/02/01 15:29:04;;;;;;;;;;;;;;;9.57;56.68;101836.00;5101883;28;19916;-77
2024/02/01 15:31:56;;;;;;;;;;;;;;;9.62;56.39;101827.84;5099226;28;19912;-76
2024/02/01 15:34:49;;;;;;;;;;;;;;;9.62;56.26;101827.03;5096892;28;19912;-76
2024/02/01 15:37:41;;;;;;;;;;;;;;;9.67;56.09;101827.00;5098479;28;19916;-76
2024/02/01 15:40:33;;;;;;;;;;;;;;;9.68;55.14;101828.63;5097329;28;19912;-77
2024/02/01 15:43:25;;;;;;;;;;;;;;;9.64;54.87;101828.38;5095548;28;20377;-78